Time;durP1;ratioP1;P1;durP2;ratioP2;P2;SDS_P1;SDS_P2;PMS_P1;PMS_P2;Temp;Humidity;BMP_temperature;BMP_pressure;BME280_temperature;BME280_humidity;BME280_pressure;Samples;Min_cycle;Max_cycle;Signal;HPM_P1;HPM_P2
2022/03/04 00:05:06;;;;;;;56.40;29.70;;;;;;;2.75;55.80;100417.44;18302786;32;20094;-66
2022/03/04 00:15:11;;;;;;;56.67;27.37;;;;;;;2.51;55.96;100407.25;18307425;32;20393;-65
2022/03/04 00:25:14;;;;;;;53.65;28.60;;;;;;;2.30;56.05;100425.50;18307160;32;20111;-66
2022/03/04 00:35:19;;;;;;;57.30;28.35;;;;;;;2.42;55.71;100419.87;18308079;32;20102;-65
2022/03/04 00:45:22;;;;;;;49.58;27.62;;;;;;;2.58;55.22;100416.06;18305892;32;20422;-66
2022/03/04 00:55:27;;;;;;;52.15;26.50;;;;;;;2.60;56.06;100411.81;18306482;32;20151;-66
2022/03/04 01:05:30;;;;;;;53.05;25.92;;;;;;;2.70;56.65;100405.25;18305999;32;20101;-66
2022/03/04 01:15:35;;;;;;;47.30;25.05;;;;;;;2.87;55.95;100401.47;18305768;32;20090;-66
2022/03/04 01:25:38;;;;;;;46.30;23.05;;;;;;;3.26;54.70;100396.53;18305801;32;20395;-66
2022/03/04 01:35:43;;;;;;;38.97;20.12;;;;;;;3.38;55.49;100394.28;18305771;32;20358;-66
2022/03/04 01:45:47;;;;;;;41.15;18.35;;;;;;;3.31;53.21;100387.19;18305629;32;20111;-66
2022/03/04 01:55:51;;;;;;;39.22;20.00;;;;;;;3.66;53.33;100395.00;18304331;32;20356;-66
2022/03/04 02:05:54;;;;;;;32.05;17.48;;;;;;;3.98;52.17;100392.38;18304475;32;20108;-66
2022/03/04 02:15:59;;;;;;;37.92;18.15;;;;;;;4.11;51.34;100378.03;18304067;32;20101;-66
2022/03/04 02:26:04;;;;;;;38.05;19.05;;;;;;;3.86;52.07;100389.47;18303517;32;20394;-66
2022/03/04 02:36:08;;;;;;;32.90;16.80;;;;;;;4.11;52.21;100390.09;18303550;32;20098;-66
2022/03/04 02:46:13;;;;;;;31.17;16.75;;;;;;;4.07;52.07;100396.87;18302743;32;20153;-66
2022/03/04 02:56:16;;;;;;;33.03;17.27;;;;;;;4.01;52.85;100412.22;18302374;32;20108;-66
2022/03/04 03:06:21;;;;;;;31.83;15.75;;;;;;;4.09;52.66;100409.84;18301952;32;20093;-66
2022/03/04 03:16:24;;;;;;;35.10;16.75;;;;;;;3.95;54.16;100422.44;18309111;32;20167;-66
2022/03/04 03:26:29;;;;;;;31.45;16.87;;;;;;;3.70;53.91;100414.91;18309282;32;20158;-66
2022/03/04 03:36:32;;;;;;;34.00;18.02;;;;;;;3.75;54.96;100413.31;18308835;32;20178;-66
2022/03/04 03:46:37;;;;;;;34.72;17.70;;;;;;;3.85;54.29;100421.31;18308316;32;20173;-66
2022/03/04 03:56:40;;;;;;;33.70;16.95;;;;;;;3.68;55.60;100419.16;18308044;32;20457;-66
2022/03/04 04:06:45;;;;;;;37.63;19.00;;;;;;;3.74;56.09;100421.91;18307391;32;20359;-66
2022/03/04 04:16:48;;;;;;;33.70;18.27;;;;;;;3.69;56.32;100431.22;18307456;32;20120;-66
2022/03/04 04:26:52;;;;;;;34.13;17.95;;;;;;;3.78;56.59;100440.94;18306675;32;20131;-66
2022/03/04 04:36:56;;;;;;;32.83;18.00;;;;;;;4.10;55.60;100456.38;18307101;32;20394;-66
2022/03/04 04:47:00;;;;;;;35.60;18.30;;;;;;;4.49;54.67;100464.19;18307013;32;20097;-66
2022/03/04 04:57:04;;;;;;;36.00;17.95;;;;;;;4.80;53.02;100464.91;18306761;32;20097;-66
2022/03/04 05:07:09;;;;;;;42.75;19.00;;;;;;;4.76;53.30;100474.31;18307307;32;20182;-66
2022/03/04 05:17:12;;;;;;;45.95;24.35;;;;;;;4.46;54.17;100485.69;18306072;32;20098;-66
2022/03/04 05:27:16;;;;;;;38.53;20.55;;;;;;;4.54;54.29;100485.88;18305657;32;20409;-66
2022/03/04 05:37:20;;;;;;;48.03;23.70;;;;;;;4.47;54.45;100495.19;18305377;32;20385;-66
2022/03/04 05:47:24;;;;;;;50.38;25.27;;;;;;;4.39;54.76;100505.31;18305815;32;20111;-66
2022/03/04 05:57:28;;;;;;;38.92;21.23;;;;;;;4.51;56.00;100517.69;18305146;32;20098;-66
2022/03/04 06:07:35;;;;;;;40.33;20.17;;;;;;;4.57;55.06;100532.47;18304543;32;20102;-66
2022/03/04 06:17:39;;;;;;;43.60;23.08;;;;;;;3.56;60.07;100542.75;18304124;32;20374;-66
2022/03/04 06:27:54;;;;;;;43.55;23.05;;;;;;;4.39;60.97;100559.59;18304756;32;20141;-67
2022/03/04 06:37:57;;;;;;;44.53;23.40;;;;;;;4.34;63.78;100568.09;18303538;32;20777;-67
2022/03/04 06:48:02;;;;;;;49.05;24.65;;;;;;;3.89;66.88;100588.44;18302215;32;20098;-66
2022/03/04 06:58:05;;;;;;;54.38;26.87;;;;;;;4.02;66.91;100595.69;18303556;32;20457;-66
2022/03/04 07:08:11;;;;;;;59.83;31.17;;;;;;;3.91;67.97;100604.84;18300506;32;20551;-66
2022/03/04 07:18:15;;;;;;;50.55;26.85;;;;;;;3.82;69.52;100600.28;18296503;32;20185;-67
2022/03/04 07:28:20;;;;;;;52.58;26.92;;;;;;;4.55;67.07;100602.25;18299460;32;20466;-66
2022/03/04 07:38:23;;;;;;;46.20;23.67;;;;;;;4.87;66.67;100603.88;18299742;32;20129;-66
2022/03/04 07:48:28;;;;;;;47.90;22.50;;;;;;;5.28;64.15;100619.53;18299394;32;20112;-66
2022/03/04 07:58:32;;;;;;;39.20;21.37;;;;;;;5.50;64.97;100627.78;18296751;32;20085;-66
2022/03/04 08:08:38;;;;;;;39.47;21.40;;;;;;;6.18;62.17;100630.06;18307912;32;20151;-66
2022/03/04 08:18:41;;;;;;;39.78;20.52;;;;;;;6.82;58.98;100642.47;18307435;32;20101;-67
2022/03/04 08:28:45;;;;;;;34.55;18.00;;;;;;;6.98;56.33;100643.59;18305121;32;20098;-67
2022/03/04 08:38:49;;;;;;;35.15;19.27;;;;;;;7.35;53.50;100648.47;18304801;32;20105;-67
2022/03/04 08:48:53;;;;;;;33.30;18.25;;;;;;;7.35;52.32;100635.50;18303619;32;20112;-67
2022/03/04 08:58:57;;;;;;;34.85;19.17;;;;;;;8.08;48.82;100643.41;18304273;32;20464;-65
2022/03/04 09:09:01;;;;;;;37.60;19.37;;;;;;;7.70;49.68;100655.06;18302142;32;20120;-65
2022/03/04 09:19:05;;;;;;;35.13;18.73;;;;;;;8.47;49.64;100649.88;18305487;32;20153;-65
2022/03/04 09:29:10;;;;;;;33.55;19.15;;;;;;;8.36;48.79;100662.81;18301380;32;20133;-65
2022/03/04 09:39:14;;;;;;;38.92;20.45;;;;;;;8.77;45.78;100664.09;18304937;32;20104;-65
2022/03/04 09:49:19;;;;;;;34.10;18.90;;;;;;;8.94;45.59;100661.66;18305015;32;20098;-65
2022/03/04 09:59:22;;;;;;;35.28;20.05;;;;;;;10.46;42.06;100666.03;18305084;32;20131;-65
2022/03/04 10:09:42;;;;;;;40.95;21.30;;;;;;;9.66;44.42;100664.78;18305480;32;20090;-64
2022/03/04 10:19:52;;;;;;;37.47;20.48;;;;;;;8.88;46.62;100662.50;18301799;32;20093;-64
2022/03/04 10:29:56;;;;;;;38.22;20.37;;;;;;;8.36;48.43;100668.00;18240551;32;20116;-65
2022/03/04 10:40:03;;;;;;;39.78;21.20;;;;;;;8.21;49.36;100668.72;18240279;32;20094;-65
2022/03/04 10:50:09;;;;;;;40.30;21.90;;;;;;;8.30;48.24;100662.72;18239178;32;20138;-64
2022/03/04 11:00:13;;;;;;;40.60;22.42;;;;;;;8.23;47.94;100663.50;18271117;32;20462;-65
2022/03/04 11:10:19;;;;;;;39.95;22.10;;;;;;;8.31;46.96;100669.66;18297260;32;62617;-65
2022/03/04 11:20:22;;;;;;;36.92;21.15;;;;;;;8.14;47.58;100666.88;18293068;32;20130;-65
2022/03/04 11:30:32;;;;;;;36.45;20.08;;;;;;;8.15;48.18;100666.88;18291953;32;20085;-65
2022/03/04 11:40:38;;;;;;;37.10;19.85;;;;;;;7.91;48.28;100664.84;18308678;32;20081;-65
2022/03/04 11:50:52;;;;;;;37.30;21.25;;;;;;;7.86;48.22;100661.34;18308209;32;20473;-65
2022/03/04 12:01:18;;;;;;;36.85;21.08;;;;;;;8.43;47.24;100651.59;18308058;32;20086;-65
2022/03/04 12:11:24;;;;;;;39.17;22.08;;;;;;;8.56;44.60;100654.37;18307890;32;20090;-65
2022/03/04 12:21:29;;;;;;;38.53;19.15;;;;;;;8.68;44.78;100654.47;18307369;32;20145;-65
2022/03/04 12:31:39;;;;;;;36.25;20.73;;;;;;;8.99;42.23;100653.91;18306895;32;20105;-64
2022/03/04 12:41:42;;;;;;;33.88;18.37;;;;;;;9.23;42.65;100652.34;18305998;32;20438;-65
2022/03/04 12:51:47;;;;;;;37.53;20.75;;;;;;;9.26;41.87;100639.34;18306325;32;20109;-64
2022/03/04 13:01:51;;;;;;;31.98;17.60;;;;;;;9.12;45.56;100650.50;18306282;32;20151;-65
2022/03/04 13:12:04;;;;;;;35.42;19.70;;;;;;;8.61;46.72;100639.66;18305792;32;20147;-65
2022/03/04 13:22:07;;;;;;;;;;;;;;;7.67;50.13;100640.28;18306190;32;20461;-65
2022/03/04 13:32:14;;;;;;;32.28;18.80;;;;;;;8.92;47.44;100631.25;18305173;32;19999;-64
2022/03/04 13:42:22;;;;;;;31.08;17.00;;;;;;;8.73;45.76;100634.59;18301964;32;20104;-65
2022/03/04 13:52:27;;;;;;;31.85;18.65;;;;;;;8.98;42.03;100637.37;18303390;32;20113;-65
2022/03/04 14:02:38;;;;;;;38.17;20.67;;;;;;;9.24;41.23;100622.81;18305804;32;20098;-65
2022/03/04 14:12:43;;;;;;;37.45;20.67;;;;;;;8.62;43.13;100627.53;18303868;32;20109;-64
2022/03/04 14:22:47;;;;;;;42.85;21.45;;;;;;;8.00;46.36;100635.50;18303949;32;20082;-64
2022/03/04 14:32:52;;;;;;;41.08;21.98;;;;;;;7.89;46.99;100624.97;18303405;32;20099;-65
2022/03/04 14:42:58;;;;;;;36.25;20.92;;;;;;;7.78;47.64;100627.44;18303276;32;20389;-65
2022/03/04 14:53:03;;;;;;;51.85;28.52;;;;;;;7.64;47.13;100627.28;18301481;32;20097;-65
2022/03/04 15:03:07;;;;;;;43.28;22.13;;;;;;;7.52;46.23;100635.75;18302086;32;20216;-65
2022/03/04 15:13:12;;;;;;;48.45;26.23;;;;;;;7.71;45.37;100628.22;18309242;32;20094;-65
2022/03/04 15:23:15;;;;;;;37.78;20.25;;;;;;;7.97;45.00;100627.69;18310169;32;20148;-65
2022/03/04 15:33:33;;;;;;;42.92;23.90;;;;;;;7.93;45.24;100631.09;18308964;32;20093;-65
2022/03/04 15:43:37;;;;;;;35.10;20.42;;;;;;;7.90;47.23;100637.09;18308326;32;20497;-65
2022/03/04 15:53:41;;;;;;;39.17;20.65;;;;;;;8.08;46.36;100639.06;18307786;32;20133;-65
2022/03/04 16:03:46;;;;;;;44.47;24.95;;;;;;;7.60;47.77;100649.72;18308111;32;20370;-65
2022/03/04 16:13:50;;;;;;;88.35;44.15;;;;;;;7.27;48.85;100657.91;18306934;32;20160;-65
2022/03/04 16:23:53;;;;;;;50.85;29.08;;;;;;;6.82;50.80;100657.16;18306681;32;20094;-65
2022/03/04 16:33:58;;;;;;;52.42;25.52;;;;;;;6.45;51.65;100668.63;18306709;32;20086;-65
2022/03/04 16:44:01;;;;;;;59.53;30.33;;;;;;;5.92;52.78;100672.72;18305939;32;20097;-64
2022/03/04 16:54:06;;;;;;;58.05;30.65;;;;;;;5.39;54.10;100681.91;18306908;32;20105;-64
2022/03/04 17:04:09;;;;;;;67.87;34.58;;;;;;;4.92;54.64;100689.38;18306118;32;20097;-66
2022/03/04 17:14:14;;;;;;;63.38;33.00;;;;;;;4.37;56.74;100706.03;18303274;32;20105;-66
2022/03/04 17:24:17;;;;;;;61.97;35.50;;;;;;;3.95;58.56;100725.50;18305000;32;20108;-66
2022/03/04 17:34:22;;;;;;;68.22;33.92;;;;;;;3.33;59.72;100727.03;18304680;32;20086;-66
2022/03/04 17:44:26;;;;;;;78.95;37.03;;;;;;;3.29;58.98;100726.88;18305124;32;20120;-66
2022/03/04 17:54:31;;;;;;;76.72;33.92;;;;;;;3.11;59.74;100722.88;18305932;32;20152;-67
2022/03/04 18:04:35;;;;;;;71.80;35.95;;;;;;;3.01;60.15;100725.97;18304481;32;20152;-66
2022/03/04 18:14:41;;;;;;;72.10;34.03;;;;;;;3.07;60.71;100739.06;18304129;32;20189;-67
2022/03/04 18:24:45;;;;;;;68.45;33.80;;;;;;;2.89;60.94;100753.09;18304154;32;20086;-66
2022/03/04 18:34:50;;;;;;;435.45;141.68;;;;;;;2.63;62.02;100758.19;18303788;32;20171;-66
2022/03/04 18:55:12;;;;;;;98.00;44.25;;;;;;;2.93;61.98;100764.38;18302008;32;20101;-66
2022/03/04 19:05:16;;;;;;;101.07;45.58;;;;;;;3.12;61.93;100773.63;18302269;32;20159;-66
2022/03/04 19:15:22;;;;;;;173.80;67.20;;;;;;;3.22;61.12;100779.09;18301153;32;20110;-66
2022/03/04 19:25:26;;;;;;;114.07;52.00;;;;;;;3.27;61.97;100800.78;18300824;32;20450;-66
2022/03/04 19:35:33;;;;;;;71.53;36.10;;;;;;;3.60;62.67;100813.06;18300328;32;20137;-66
2022/03/04 19:45:37;;;;;;;81.35;39.20;;;;;;;3.71;61.58;100819.47;18299900;32;20387;-66
2022/03/04 19:55:41;;;;;;;77.18;38.35;;;;;;;3.71;61.80;100824.66;18306209;32;20106;-66
2022/03/04 20:05:45;;;;;;;68.97;37.00;;;;;;;3.88;61.43;100832.03;18308252;32;20097;-66
2022/03/04 20:15:50;;;;;;;69.93;35.60;;;;;;;4.03;60.20;100831.62;18306296;32;20410;-66
2022/03/04 20:25:53;;;;;;;105.32;51.95;;;;;;;4.24;59.40;100853.84;18307846;32;20094;-66
2022/03/04 20:35:59;;;;;;;61.37;31.37;;;;;;;4.01;59.62;100852.28;18307448;32;20098;-66
2022/03/04 20:46:03;;;;;;;34.38;17.65;;;;;;;4.24;58.59;100875.38;18307400;32;20089;-66
2022/03/04 20:56:08;;;;;;;34.50;17.62;;;;;;;4.64;53.74;100878.31;18307347;32;20116;-66
2022/03/04 21:06:11;;;;;;;38.05;19.92;;;;;;;4.75;53.66;100870.87;18303397;32;20512;-66
2022/03/04 21:16:16;;;;;;;45.42;22.02;;;;;;;4.61;55.33;100879.94;18303470;32;20147;-66
2022/03/04 21:26:19;;;;;;;40.08;19.42;;;;;;;4.64;54.62;100880.00;18302328;32;20090;-66
2022/03/04 21:36:24;;;;;;;42.80;21.95;;;;;;;4.61;54.94;100870.47;18300124;32;20089;-66
2022/03/04 21:46:27;;;;;;;40.42;20.85;;;;;;;4.18;56.45;100869.16;18289335;32;20125;-66
2022/03/04 21:56:32;;;;;;;42.58;22.42;;;;;;;4.41;56.63;100875.03;18300690;32;20712;-66
2022/03/04 22:06:36;;;;;;;39.47;20.33;;;;;;;4.15;57.45;100870.81;18300442;32;20452;-66
2022/03/04 22:16:40;;;;;;;39.70;20.48;;;;;;;4.18;57.69;100866.56;18299111;32;20105;-66
2022/03/04 22:26:44;;;;;;;43.87;21.83;;;;;;;4.49;56.67;100864.91;18298191;32;20386;-66
2022/03/04 22:36:48;;;;;;;42.92;20.85;;;;;;;3.74;58.96;100845.38;18303381;32;20103;-66
2022/03/04 22:46:52;;;;;;;38.90;20.70;;;;;;;3.83;59.48;100862.03;18302979;32;20711;-66
2022/03/04 22:56:57;;;;;;;48.67;23.42;;;;;;;4.30;57.39;100854.91;18302962;32;20097;-66
2022/03/04 23:17:33;;;;;;;54.40;27.65;;;;;;;3.66;59.44;100864.91;18300668;32;20652;-66
2022/03/04 23:27:36;;;;;;;53.00;28.40;;;;;;;3.57;60.02;100862.91;18304927;32;20093;-66
2022/03/04 23:38:01;;;;;;;50.00;25.50;;;;;;;3.59;60.11;100862.94;18309381;32;20097;-66
2022/03/04 23:48:05;;;;;;;63.38;32.70;;;;;;;3.46;59.81;100856.47;18308828;32;20110;-66
2022/03/04 23:58:09;;;;;;;50.08;24.48;;;;;;;3.31;60.29;100856.84;18308686;32;20097;-66
